Surfside, South Carolina
Current Conditions -  °F | °C
As of 11:45 AM on Thursday 23 Oct 2014 (Local Time) from KMYR Reporting Station
Clear Clear  
Wind Chill: 63°   Ceiling: Unl
Heat Index: 63°   Visibility: 10mi
Dew Point: 43°   Wind: 9mph
Humidity: 48%   Direction: 350°N
Pressure: 30.06"   Gusts: NA
Location:  33.6272°N, 78.9693°W
Report Text: KMYR 231545Z 35008KT 10SM CLR 17/06 A3006
Loading
Personal Weather Stations






























Interactive Weather Map
Tropical Storm Tracking
New forecast layout! Learn more

10-Day Weather Forecast

Advertisements
Track Severe Weather on mobile